Time;durP1;ratioP1;P1;durP2;ratioP2;P2;SDS_P1;SDS_P2;PMS_P1;PMS_P2;Temp;Humidity;BMP_temperature;BMP_pressure;BME280_temperature;BME280_humidity;BME280_pressure;Samples;Min_cycle;Max_cycle;Signal;HPM_P1;HPM_P2
2022/10/27 00:01:07;;;;;;;3.90;3.20;;;23.60;70.70;;;;;;5098614;28;20459;-81
2022/10/27 00:03:35;;;;;;;4.83;3.40;;;23.50;70.70;;;;;;5109412;28;20479;-82
2022/10/27 00:06:06;;;;;;;3.40;3.10;;;23.50;70.70;;;;;;5093943;28;20457;-82
2022/10/27 00:08:36;;;;;;;3.73;3.43;;;23.50;70.70;;;;;;5092522;28;20457;-82
2022/10/27 00:11:06;;;;;;;3.60;3.30;;;23.50;70.70;;;;;;5100337;28;20762;-82
2022/10/27 00:13:35;;;;;;;3.93;3.63;;;23.50;70.70;;;;;;5110537;28;20482;-81
2022/10/27 00:16:06;;;;;;;3.20;2.90;;;23.50;70.70;;;;;;5093977;28;20822;-85
2022/10/27 00:18:34;;;;;;;3.27;3.00;;;23.50;70.70;;;;;;5093382;28;20454;-83
2022/10/27 00:21:05;;;;;;;3.83;3.00;;;23.50;70.70;;;;;;5099062;28;20462;-82
2022/10/27 00:23:35;;;;;;;3.77;3.40;;;23.50;70.70;;;;;;5102072;28;21327;-83
2022/10/27 00:26:03;;;;;;;5.03;3.30;;;23.50;70.70;;;;;;5113840;28;20464;-83
2022/10/27 00:28:33;;;;;;;3.33;3.07;;;23.50;70.70;;;;;;5102127;28;20501;-84
2022/10/27 00:31:02;;;;;;;3.90;3.60;;;23.50;70.70;;;;;;5093233;28;20426;-82
2022/10/27 00:33:31;;;;;;;3.57;3.27;;;23.50;70.80;;;;;;5112245;28;20528;-82
2022/10/27 00:36:04;;;;;;;3.57;3.27;;;23.50;70.80;;;;;;5093311;28;20466;-82
2022/10/27 00:38:32;;;;;;;3.43;2.70;;;23.50;70.80;;;;;;5102507;28;20486;-84
2022/10/27 00:41:02;;;;;;;3.20;2.63;;;23.50;70.80;;;;;;5112707;28;20447;-83
2022/10/27 00:43:32;;;;;;;4.63;3.30;;;23.50;70.80;;;;;;5110333;28;20504;-82
2022/10/27 00:46:14;;;;;;;3.60;3.30;;;23.50;70.80;;;;;;5104598;28;20465;-82
2022/10/27 00:48:42;;;;;;;3.03;2.77;;;23.50;70.80;;;;;;5095561;28;20818;-82
2022/10/27 00:51:15;;;;;;;2.90;2.70;;;23.50;70.80;;;;;;5101108;28;20481;-82
2022/10/27 00:53:43;;;;;;;3.20;2.90;;;23.50;70.80;;;;;;5101187;28;20467;-82
2022/10/27 00:56:13;;;;;;;3.40;3.20;;;23.40;70.80;;;;;;5098523;28;20454;-82
2022/10/27 00:58:41;;;;;;;3.43;3.13;;;23.50;70.80;;;;;;5096970;28;20451;-82
2022/10/27 01:01:09;;;;;;;3.30;3.10;;;23.50;70.80;;;;;;5104572;28;20832;-82
2022/10/27 01:03:38;;;;;;;3.60;3.30;;;23.40;70.80;;;;;;5093427;28;20480;-82
2022/10/27 01:06:08;;;;;;;3.40;2.97;;;23.40;70.80;;;;;;5091793;28;20463;-82
2022/10/27 01:08:37;;;;;;;3.30;3.00;;;23.40;70.80;;;;;;5099699;28;20452;-82
2022/10/27 01:11:06;;;;;;;3.30;2.97;;;23.40;70.80;;;;;;5092775;28;20454;-82
2022/10/27 01:13:35;;;;;;;3.87;3.40;;;23.40;70.80;;;;;;5107633;28;20481;-81
2022/10/27 01:16:15;;;;;;;3.53;3.20;;;23.40;70.80;;;;;;5092761;28;20474;-81
2022/10/27 01:18:53;;;;;;;3.30;3.10;;;23.40;70.80;;;;;;5093302;28;20947;-82
2022/10/27 01:21:50;;;;;;;3.63;3.33;;;23.40;70.80;;;;;;5096304;28;20461;-82
2022/10/27 01:24:44;;;;;;;3.93;3.50;;;23.40;70.90;;;;;;5111145;28;20474;-82
2022/10/27 01:27:34;;;;;;;4.13;3.77;;;23.40;70.90;;;;;;5096513;28;20874;-83
2022/10/27 01:30:09;;;;;;;3.10;2.90;;;23.40;70.90;;;;;;5097244;28;20536;-82
2022/10/27 01:32:48;;;;;;;3.80;3.10;;;23.40;70.80;;;;;;5096429;28;20458;-82
2022/10/27 01:35:26;;;;;;;3.70;3.20;;;23.40;70.90;;;;;;5096635;28;20450;-84
2022/10/27 01:38:00;;;;;;;3.20;3.00;;;23.40;70.90;;;;;;5110274;28;20532;-84
2022/10/27 01:40:33;;;;;;;2.90;2.70;;;23.40;70.80;;;;;;5117437;28;20440;-84
2022/10/27 01:43:06;;;;;;;4.70;3.00;;;23.40;70.90;;;;;;5116953;28;20433;-83
2022/10/27 01:45:37;;;;;;;5.63;3.50;;;23.40;70.90;;;;;;5104409;28;20492;-83
2022/10/27 01:48:08;;;;;;;3.30;3.10;;;23.30;70.80;;;;;;5116762;28;20430;-83
2022/10/27 01:50:39;;;;;;;3.60;3.30;;;23.30;70.80;;;;;;5107759;28;20453;-82
2022/10/27 01:53:30;;;;;;;3.27;2.97;;;23.30;70.80;;;;;;5101024;28;20444;-85
2022/10/27 01:56:38;;;;;;;2.83;2.63;;;23.30;70.80;;;;;;5116169;28;20449;-83
2022/10/27 01:59:26;;;;;;;3.10;2.80;;;23.30;70.90;;;;;;5033843;28;20425;-83
2022/10/27 02:02:07;;;;;;;2.67;2.57;;;23.30;70.90;;;;;;5091721;28;20459;-82
2022/10/27 02:04:45;;;;;;;3.47;3.17;;;23.30;70.90;;;;;;5101688;28;20470;-82
2022/10/27 02:07:23;;;;;;;2.90;2.70;;;23.30;70.90;;;;;;5106925;28;20448;-83
2022/10/27 02:09:55;;;;;;;3.30;3.10;;;23.30;70.90;;;;;;5102277;28;20485;-84
2022/10/27 02:12:28;;;;;;;3.27;3.07;;;23.30;70.90;;;;;;5102277;28;20452;-83
2022/10/27 02:14:59;;;;;;;3.10;2.80;;;23.30;70.90;;;;;;5102578;28;20483;-82
2022/10/27 02:17:31;;;;;;;3.00;2.80;;;23.30;70.90;;;;;;5101450;28;20450;-82
2022/10/27 02:20:06;;;;;;;3.27;3.07;;;23.30;70.80;;;;;;5111404;28;20456;-83
2022/10/27 02:22:38;;;;;;;2.57;2.37;;;23.30;70.90;;;;;;5101129;28;20457;-82
2022/10/27 02:25:06;;;;;;;3.40;3.20;;;23.30;70.80;;;;;;5103726;28;20469;-82
2022/10/27 02:27:37;;;;;;;2.93;2.73;;;23.30;70.80;;;;;;5111489;28;20494;-82
2022/10/27 02:30:12;;;;;;;2.77;2.57;;;23.30;70.80;;;;;;5099931;28;20536;-83
2022/10/27 02:32:40;;;;;;;3.20;3.00;;;23.30;70.80;;;;;;5093799;28;20490;-82
2022/10/27 02:35:11;;;;;;;2.80;2.60;;;23.30;70.80;;;;;;5113665;28;20450;-82
2022/10/27 02:37:42;;;;;;;2.90;2.57;;;23.30;70.80;;;;;;5115679;27;20453;-82
2022/10/27 02:40:11;;;;;;;2.83;2.63;;;23.30;70.80;;;;;;5102617;28;20456;-82
2022/10/27 02:42:39;;;;;;;3.37;3.17;;;23.30;70.80;;;;;;5102417;28;20961;-83
2022/10/27 02:45:08;;;;;;;3.00;2.80;;;23.30;70.80;;;;;;5099762;28;20477;-83
2022/10/27 02:47:36;;;;;;;3.10;2.90;;;23.30;70.80;;;;;;5106775;28;20454;-82
2022/10/27 02:50:04;;;;;;;3.30;3.03;;;23.30;70.80;;;;;;5103617;28;20448;-83
2022/10/27 02:52:34;;;;;;;2.77;2.57;;;23.30;70.80;;;;;;5100623;28;20454;-83
2022/10/27 02:55:02;;;;;;;3.40;3.10;;;23.20;70.80;;;;;;5110187;28;20951;-82
2022/10/27 02:57:30;;;;;;;3.33;3.00;;;23.30;70.80;;;;;;5113867;28;20452;-83
2022/10/27 02:59:58;;;;;;;3.30;3.10;;;23.20;70.80;;;;;;5115889;28;20662;-82
2022/10/27 03:02:26;;;;;;;3.30;3.10;;;23.20;70.80;;;;;;5114252;28;20452;-82
2022/10/27 03:04:55;;;;;;;3.27;3.07;;;23.20;70.80;;;;;;5096241;28;20485;-82
2022/10/27 03:07:23;;;;;;;2.63;2.43;;;23.20;70.80;;;;;;5095127;28;20768;-81
2022/10/27 03:09:52;;;;;;;3.43;3.13;;;23.20;70.80;;;;;;5112611;28;20525;-82
2022/10/27 03:12:20;;;;;;;2.90;2.70;;;23.20;70.80;;;;;;5110228;28;20554;-82
2022/10/27 03:14:48;;;;;;;3.30;3.00;;;23.20;70.80;;;;;;5095271;28;20454;-82
2022/10/27 03:17:17;;;;;;;2.80;2.60;;;23.20;70.80;;;;;;5101370;28;20820;-82
2022/10/27 03:19:45;;;;;;;3.00;2.80;;;23.20;70.80;;;;;;5098793;28;20465;-82
2022/10/27 03:22:13;;;;;;;2.77;2.57;;;23.20;70.80;;;;;;5096906;28;20464;-83
2022/10/27 03:24:41;;;;;;;3.00;2.70;;;23.20;70.70;;;;;;5103773;28;20477;-83
2022/10/27 03:27:10;;;;;;;2.93;2.73;;;23.20;70.70;;;;;;5114358;28;20532;-82
2022/10/27 03:29:39;;;;;;;2.43;2.27;;;23.20;70.70;;;;;;5114916;28;20454;-83
2022/10/27 03:32:07;;;;;;;2.63;2.47;;;23.20;70.80;;;;;;5100256;28;20940;-82
2022/10/27 03:34:35;;;;;;;3.00;2.80;;;23.20;70.70;;;;;;5094233;28;20945;-83
2022/10/27 03:37:03;;;;;;;3.50;3.20;;;23.20;70.70;;;;;;5093336;28;20449;-83
2022/10/27 03:39:31;;;;;;;3.10;2.90;;;23.20;70.70;;;;;;5093089;28;20461;-83
2022/10/27 03:41:59;;;;;;;3.60;3.30;;;23.20;70.70;;;;;;5094395;28;20446;-83
2022/10/27 03:44:29;;;;;;;2.63;2.43;;;23.20;70.70;;;;;;5104383;28;20555;-83
2022/10/27 03:46:57;;;;;;;3.10;2.90;;;23.20;70.70;;;;;;5114207;28;20461;-83
2022/10/27 03:49:25;;;;;;;3.57;3.27;;;23.20;70.70;;;;;;5097199;28;20455;-82
2022/10/27 03:51:55;;;;;;;3.20;3.00;;;23.20;70.70;;;;;;5098783;28;20521;-83
2022/10/27 03:54:23;;;;;;;3.30;3.10;;;23.20;70.70;;;;;;5105186;28;20527;-82
2022/10/27 03:56:51;;;;;;;3.10;2.90;;;23.20;70.70;;;;;;5114567;27;20456;-82
2022/10/27 03:59:19;;;;;;;3.47;3.27;;;23.20;70.70;;;;;;5105856;28;20450;-82
2022/10/27 04:01:49;;;;;;;3.27;2.97;;;23.20;70.70;;;;;;5099312;28;20498;-83
2022/10/27 04:04:17;;;;;;;3.00;2.70;;;23.10;70.70;;;;;;5101233;28;21196;-83
2022/10/27 04:06:45;;;;;;;2.90;2.70;;;23.20;70.70;;;;;;5097825;28;20461;-83
2022/10/27 04:09:13;;;;;;;3.63;3.33;;;23.10;70.70;;;;;;5096654;28;20461;-83
2022/10/27 04:11:42;;;;;;;2.80;2.60;;;23.10;70.70;;;;;;5103424;28;20506;-84
2022/10/27 04:14:10;;;;;;;3.60;3.30;;;23.10;70.70;;;;;;5102994;28;20978;-83
2022/10/27 04:16:38;;;;;;;3.17;2.97;;;23.10;70.70;;;;;;5099521;28;20462;-83
2022/10/27 04:19:07;;;;;;;3.07;2.60;;;23.10;70.70;;;;;;5104271;28;20536;-83
2022/10/27 04:21:36;;;;;;;2.90;2.70;;;23.10;70.70;;;;;;5094639;28;20549;-83
2022/10/27 04:24:04;;;;;;;4.00;2.50;;;23.10;70.70;;;;;;5095416;28;20458;-83
2022/10/27 04:26:32;;;;;;;2.80;2.60;;;23.10;70.70;;;;;;5103961;28;20468;-83
2022/10/27 04:29:00;;;;;;;2.97;2.77;;;23.10;70.70;;;;;;5100654;28;20474;-81
2022/10/27 04:31:28;;;;;;;3.07;2.87;;;23.10;70.70;;;;;;5099501;28;20455;-82
2022/10/27 04:33:58;;;;;;;3.87;3.63;;;23.10;70.70;;;;;;5096612;28;20776;-83
2022/10/27 04:36:27;;;;;;;3.30;3.00;;;23.10;70.70;;;;;;5104520;28;20459;-83
2022/10/27 04:38:55;;;;;;;3.37;3.07;;;23.10;70.70;;;;;;5102558;28;20942;-84
2022/10/27 04:41:23;;;;;;;2.50;2.30;;;23.10;70.70;;;;;;5095568;28;20448;-83
2022/10/27 04:43:52;;;;;;;3.00;2.80;;;23.10;70.70;;;;;;5096371;28;20546;-83
2022/10/27 04:46:20;;;;;;;3.20;3.00;;;23.10;70.70;;;;;;5098828;28;21147;-83
2022/10/27 04:48:48;;;;;;;2.63;2.43;;;23.10;70.70;;;;;;5097777;28;20463;-81
2022/10/27 04:51:16;;;;;;;2.87;2.67;;;23.10;70.70;;;;;;5101460;28;20479;-84
2022/10/27 04:53:51;;;;;;;2.23;2.13;;;23.10;70.70;;;;;;5095050;28;21026;-83
2022/10/27 04:56:19;;;;;;;3.07;2.87;;;23.10;70.70;;;;;;5102921;28;20456;-80
2022/10/27 04:58:47;;;;;;;3.40;2.53;;;23.10;70.70;;;;;;5104814;28;20464;-80
2022/10/27 05:01:15;;;;;;;2.53;2.43;;;23.10;70.70;;;;;;5106047;28;20465;-80
2022/10/27 05:03:43;;;;;;;2.90;2.70;;;23.10;70.70;;;;;;5105865;28;20454;-80
2022/10/27 05:06:12;;;;;;;3.40;3.07;;;23.10;70.70;;;;;;5101953;28;20472;-79
2022/10/27 05:08:40;;;;;;;2.77;2.57;;;23.10;70.70;;;;;;5104630;28;20462;-80
2022/10/27 05:11:10;;;;;;;2.63;2.43;;;23.10;70.70;;;;;;5098343;28;20810;-80
2022/10/27 05:13:43;;;;;;;2.90;2.70;;;23.10;70.70;;;;;;5103373;28;21014;-81
2022/10/27 05:16:11;;;;;;;2.80;2.50;;;23.10;70.70;;;;;;5110414;28;20537;-80
2022/10/27 05:18:39;;;;;;;2.30;2.20;;;23.10;70.70;;;;;;5101463;28;20467;-80
2022/10/27 05:21:07;;;;;;;3.20;3.00;;;23.10;70.80;;;;;;5104246;28;20465;-81
2022/10/27 05:23:36;;;;;;;3.60;3.30;;;23.10;70.80;;;;;;5106814;28;21359;-80
2022/10/27 05:26:04;;;;;;;2.60;2.40;;;23.10;70.80;;;;;;5101451;28;20492;-80
2022/10/27 05:28:34;;;;;;;3.20;2.90;;;23.10;70.80;;;;;;5101939;28;20977;-79
2022/10/27 05:31:02;;;;;;;2.67;2.47;;;23.10;70.80;;;;;;5102013;28;20461;-80
2022/10/27 05:33:30;;;;;;;2.87;2.67;;;23.10;70.90;;;;;;5103383;28;20795;-80
2022/10/27 05:35:58;;;;;;;3.30;3.00;;;23.10;70.80;;;;;;5098642;28;20461;-80
2022/10/27 05:38:26;;;;;;;3.10;2.90;;;23.10;70.90;;;;;;5095568;28;20453;-80
2022/10/27 05:40:56;;;;;;;3.17;2.90;;;23.10;70.90;;;;;;5102155;28;20479;-80
2022/10/27 05:43:24;;;;;;;2.50;2.30;;;23.10;70.80;;;;;;5094283;28;20441;-80
2022/10/27 05:45:54;;;;;;;2.83;2.63;;;23.10;70.90;;;;;;5092474;28;20880;-80
2022/10/27 05:48:22;;;;;;;2.63;2.53;;;23.10;70.90;;;;;;5100647;28;20469;-79
2022/10/27 05:50:53;;;;;;;2.83;2.63;;;23.00;70.90;;;;;;5097401;28;20464;-80
2022/10/27 05:53:21;;;;;;;2.37;2.23;;;23.10;70.90;;;;;;5098339;28;20448;-80
2022/10/27 05:55:53;;;;;;;3.40;3.20;;;23.00;70.90;;;;;;5098607;28;21007;-80
2022/10/27 05:58:21;;;;;;;2.87;2.67;;;23.00;70.90;;;;;;5100037;28;20458;-81
2022/10/27 06:00:49;;;;;;;2.73;2.53;;;23.00;70.90;;;;;;5102528;28;20532;-80
2022/10/27 06:03:21;;;;;;;3.50;3.20;;;23.00;70.90;;;;;;5097126;28;20940;-81
2022/10/27 06:05:50;;;;;;;3.23;2.97;;;23.00;71.00;;;;;;5098850;28;20460;-81
2022/10/27 06:08:19;;;;;;;2.93;2.73;;;23.00;71.00;;;;;;5094992;28;20441;-81
2022/10/27 06:10:47;;;;;;;3.33;3.03;;;23.00;71.00;;;;;;5095683;28;20547;-81
2022/10/27 06:13:17;;;;;;;3.00;2.80;;;23.00;70.90;;;;;;5099230;28;20573;-81
2022/10/27 06:15:45;;;;;;;3.23;3.00;;;23.00;71.00;;;;;;5103510;28;20466;-80
2022/10/27 06:18:14;;;;;;;2.80;2.60;;;23.00;71.00;;;;;;5094145;28;20529;-80
2022/10/27 06:20:44;;;;;;;2.80;2.60;;;23.00;71.00;;;;;;5098395;28;20446;-81
2022/10/27 06:23:12;;;;;;;3.03;2.83;;;23.00;71.00;;;;;;5093257;28;20448;-81
2022/10/27 06:25:42;;;;;;;2.80;2.60;;;23.00;71.00;;;;;;5099738;28;20453;-81
2022/10/27 06:28:11;;;;;;;3.50;3.27;;;23.00;71.00;;;;;;5098527;27;20484;-80
2022/10/27 06:30:39;;;;;;;2.67;2.47;;;23.00;71.00;;;;;;5099007;28;20486;-80
2022/10/27 06:33:07;;;;;;;2.80;2.60;;;23.00;71.00;;;;;;5096870;28;20468;-81
2022/10/27 06:35:35;;;;;;;4.63;3.07;;;23.00;71.00;;;;;;5103062;28;20449;-81
2022/10/27 06:38:04;;;;;;;5.67;4.13;;;23.00;71.10;;;;;;5093778;28;20471;-76
2022/10/27 06:40:32;;;;;;;8.70;3.73;;;23.00;72.20;;;;;;5097316;28;20453;-74
2022/10/27 06:43:01;;;;;;;4.70;3.40;;;23.10;73.00;;;;;;5103845;28;20559;-74
2022/10/27 06:45:34;;;;;;;3.53;3.00;;;23.10;73.00;;;;;;5093072;28;20482;-74
2022/10/27 06:48:03;;;;;;;6.57;3.80;;;23.10;73.20;;;;;;5094068;28;20570;-75
2022/10/27 06:50:31;;;;;;;5.17;3.83;;;23.10;73.10;;;;;;5100603;28;20488;-75
2022/10/27 06:53:00;;;;;;;5.00;3.37;;;23.10;73.00;;;;;;5099376;28;20460;-74
2022/10/27 06:55:30;;;;;;;4.23;3.60;;;23.10;73.00;;;;;;5099390;28;20453;-74
2022/10/27 06:57:58;;;;;;;4.17;3.53;;;23.10;73.00;;;;;;5099115;28;20455;-74
2022/10/27 07:00:27;;;;;;;4.10;3.53;;;23.20;72.90;;;;;;5094519;28;20958;-74
2022/10/27 07:02:55;;;;;;;3.43;3.07;;;23.20;72.90;;;;;;5096579;28;20963;-74
2022/10/27 07:05:23;;;;;;;4.20;2.53;;;23.20;72.90;;;;;;5093018;28;20452;-74
2022/10/27 07:07:52;;;;;;;4.30;3.40;;;23.20;72.80;;;;;;5093446;28;20477;-74
2022/10/27 07:10:22;;;;;;;7.07;3.60;;;23.30;72.70;;;;;;5097059;28;20482;-74
2022/10/27 07:12:56;;;;;;;6.60;3.60;;;23.30;72.70;;;;;;5091944;28;21138;-74
2022/10/27 07:15:25;;;;;;;3.63;3.30;;;23.30;72.70;;;;;;5098297;28;20448;-74
2022/10/27 07:17:58;;;;;;;3.23;2.93;;;23.30;72.60;;;;;;5099026;28;20469;-74
2022/10/27 07:20:28;;;;;;;4.13;3.60;;;23.30;72.60;;;;;;5100166;28;20460;-74
2022/10/27 07:22:57;;;;;;;4.47;3.80;;;23.40;72.60;;;;;;5091797;28;20801;-74
2022/10/27 07:25:26;;;;;;;4.33;2.97;;;23.40;72.60;;;;;;5093916;28;20463;-74
2022/10/27 07:27:57;;;;;;;5.87;3.80;;;23.40;72.50;;;;;;5096065;28;20467;-73
2022/10/27 07:30:27;;;;;;;4.03;3.23;;;23.40;72.50;;;;;;5101741;28;20948;-73
2022/10/27 07:32:56;;;;;;;5.97;4.13;;;23.40;72.50;;;;;;5099054;28;20440;-72
2022/10/27 07:35:25;;;;;;;4.33;3.93;;;23.50;72.50;;;;;;5092266;28;20452;-73
2022/10/27 07:37:53;;;;;;;5.53;3.53;;;23.50;72.50;;;;;;5091851;28;20457;-75
2022/10/27 07:40:23;;;;;;;11.50;3.10;;;23.50;72.40;;;;;;5095820;28;20459;-73
2022/10/27 07:43:01;;;;;;;3.83;3.43;;;23.50;72.40;;;;;;5100462;28;20460;-74
2022/10/27 07:45:36;;;;;;;4.10;3.03;;;23.50;72.40;;;;;;5101409;28;20498;-74
2022/10/27 07:48:05;;;;;;;4.00;3.40;;;23.50;72.40;;;;;;5106413;28;20556;-74
2022/10/27 07:50:34;;;;;;;9.03;4.00;;;23.60;72.30;;;;;;5102880;28;20449;-74
2022/10/27 07:53:02;;;;;;;6.73;3.53;;;23.60;72.30;;;;;;5103726;28;20457;-74
2022/10/27 07:55:33;;;;;;;6.97;3.60;;;23.60;72.30;;;;;;5102177;27;20465;-74
2022/10/27 07:58:04;;;;;;;3.03;2.73;;;23.60;72.30;;;;;;5099535;28;20811;-74
2022/10/27 08:00:34;;;;;;;3.87;3.30;;;23.60;72.20;;;;;;5092801;28;20451;-69
2022/10/27 08:03:03;;;;;;;5.97;3.00;;;23.60;72.20;;;;;;5092948;28;21045;-74
2022/10/27 08:05:33;;;;;;;3.50;3.13;;;23.70;72.00;;;;;;5099698;28;20947;-76
2022/10/27 08:08:03;;;;;;;5.70;3.10;;;23.70;71.90;;;;;;5098373;28;21171;-73
2022/10/27 08:10:33;;;;;;;4.13;3.23;;;23.70;72.00;;;;;;5098538;28;20456;-73
2022/10/27 08:13:03;;;;;;;4.00;3.30;;;23.70;72.00;;;;;;5096837;28;20495;-73
2022/10/27 08:15:32;;;;;;;4.43;2.87;;;23.70;72.10;;;;;;5095098;28;20512;-74
2022/10/27 08:18:01;;;;;;;3.73;2.67;;;23.70;72.00;;;;;;5094962;28;20450;-74
2022/10/27 08:20:31;;;;;;;3.43;3.13;;;23.70;72.00;;;;;;5095321;28;20529;-74
2022/10/27 08:23:00;;;;;;;3.60;3.30;;;23.70;72.10;;;;;;5092999;28;20537;-74
2022/10/27 08:25:29;;;;;;;3.40;3.10;;;23.80;72.10;;;;;;5097758;28;21023;-74
2022/10/27 08:27:58;;;;;;;3.20;2.70;;;23.80;72.00;;;;;;5093618;28;20475;-75
2022/10/27 08:30:30;;;;;;;3.03;2.73;;;23.80;71.90;;;;;;5090932;28;20994;-74
2022/10/27 08:33:03;;;;;;;4.10;3.57;;;23.80;71.90;;;;;;5093688;28;20460;-75
2022/10/27 08:35:32;;;;;;;4.00;2.70;;;23.80;71.80;;;;;;5102299;28;20844;-75
2022/10/27 08:38:01;;;;;;;3.53;2.77;;;23.80;71.80;;;;;;5095469;28;20452;-75
2022/10/27 08:40:37;;;;;;;4.47;2.83;;;23.80;71.70;;;;;;5099059;28;20445;-74
2022/10/27 08:43:22;;;;;;;9.37;3.70;;;23.90;71.80;;;;;;5098520;28;20469;-75
2022/10/27 08:45:56;;;;;;;3.27;2.97;;;23.90;71.70;;;;;;5100131;28;20475;-76
2022/10/27 08:48:27;;;;;;;6.67;2.93;;;23.90;71.70;;;;;;5094190;28;20471;-74
2022/10/27 08:50:55;;;;;;;3.73;3.20;;;23.90;71.60;;;;;;5094735;28;20538;-75
2022/10/27 08:53:29;;;;;;;2.83;2.60;;;23.90;71.60;;;;;;5096117;28;20998;-73
2022/10/27 08:56:02;;;;;;;2.50;2.30;;;24.00;71.60;;;;;;5100607;28;20440;-75
2022/10/27 08:58:36;;;;;;;3.60;3.00;;;24.00;71.60;;;;;;5101929;28;20915;-74
2022/10/27 09:01:20;;;;;;;3.40;2.97;;;24.00;71.50;;;;;;5098005;28;20455;-74
2022/10/27 09:04:07;;;;;;;2.90;2.60;;;24.00;71.50;;;;;;5094243;28;20797;-74
2022/10/27 09:06:42;;;;;;;3.20;2.80;;;24.10;71.40;;;;;;5095439;28;20453;-74
2022/10/27 09:09:22;;;;;;;2.87;2.70;;;24.10;71.40;;;;;;5099062;28;20560;-75
2022/10/27 09:11:58;;;;;;;3.40;3.10;;;24.10;71.30;;;;;;5094693;28;20498;-75
2022/10/27 09:14:48;;;;;;;2.93;2.70;;;24.10;71.30;;;;;;5103419;28;20480;-74
2022/10/27 09:17:21;;;;;;;3.03;2.83;;;24.10;71.30;;;;;;5100022;28;20495;-77
2022/10/27 09:19:54;;;;;;;3.27;3.07;;;24.10;71.20;;;;;;5099366;28;20971;-77
2022/10/27 09:22:24;;;;;;;3.07;2.80;;;24.20;71.10;;;;;;5095533;28;20490;-79
2022/10/27 09:24:58;;;;;;;4.13;3.17;;;24.20;71.10;;;;;;5090835;28;20451;-79
2022/10/27 09:27:26;;;;;;;2.77;2.57;;;24.20;71.10;;;;;;5092354;28;20545;-78
2022/10/27 09:30:00;;;;;;;4.53;2.97;;;24.20;71.00;;;;;;5107270;28;20479;-77
2022/10/27 09:32:34;;;;;;;3.73;2.93;;;24.20;71.10;;;;;;5096650;28;20610;-76
2022/10/27 09:35:10;;;;;;;2.90;2.60;;;24.20;71.00;;;;;;5101670;28;20478;-77
2022/10/27 09:37:40;;;;;;;2.50;2.30;;;24.20;71.00;;;;;;5090554;28;20460;-76
2022/10/27 09:40:12;;;;;;;3.70;2.80;;;24.20;70.70;;;;;;5095500;28;20447;-75
2022/10/27 09:42:41;;;;;;;3.53;3.23;;;24.30;70.60;;;;;;5103476;28;20497;-75
2022/10/27 09:45:15;;;;;;;2.20;2.10;;;24.30;70.70;;;;;;5097678;28;20761;-72
2022/10/27 09:47:48;;;;;;;3.47;3.17;;;24.30;70.70;;;;;;5096535;28;20539;-76
2022/10/27 09:50:21;;;;;;;3.13;2.73;;;24.30;70.70;;;;;;5097963;28;20462;-75
2022/10/27 09:52:51;;;;;;;3.90;3.00;;;24.30;70.70;;;;;;5102610;28;20442;-74
2022/10/27 09:55:21;;;;;;;3.60;3.30;;;24.30;70.50;;;;;;5101091;28;20451;-74
2022/10/27 09:57:50;;;;;;;3.83;2.97;;;24.40;70.50;;;;;;5103845;28;20456;-75
2022/10/27 10:00:27;;;;;;;2.73;2.20;;;24.40;70.50;;;;;;5098962;28;21084;-73
2022/10/27 10:03:02;;;;;;;2.90;2.70;;;24.40;70.50;;;;;;5102907;28;20453;-75
2022/10/27 10:05:37;;;;;;;3.00;2.80;;;24.40;70.40;;;;;;5097807;28;20455;-73
2022/10/27 10:08:14;;;;;;;2.77;2.63;;;24.40;70.30;;;;;;5099758;28;20524;-74
2022/10/27 10:10:55;;;;;;;3.33;3.10;;;24.40;70.30;;;;;;5096010;28;20979;-73
2022/10/27 10:13:24;;;;;;;3.20;2.80;;;24.50;70.30;;;;;;5095809;28;20483;-75
2022/10/27 10:16:07;;;;;;;2.60;2.40;;;24.50;70.10;;;;;;5096861;28;20435;-75
2022/10/27 10:18:39;;;;;;;2.77;2.57;;;24.50;70.10;;;;;;5096089;28;20539;-75
2022/10/27 10:21:10;;;;;;;3.00;2.70;;;24.60;69.90;;;;;;5095592;28;20451;-75
2022/10/27 10:23:48;;;;;;;2.50;2.30;;;24.60;69.70;;;;;;5101145;28;20450;-74
2022/10/27 10:26:19;;;;;;;3.20;3.00;;;24.60;69.70;;;;;;5098874;28;20441;-75
2022/10/27 10:28:51;;;;;;;3.07;2.87;;;24.60;69.60;;;;;;5103058;28;20487;-74
2022/10/27 10:31:24;;;;;;;3.13;2.93;;;24.60;69.60;;;;;;5096663;28;20466;-77
2022/10/27 10:34:02;;;;;;;3.40;3.07;;;24.70;69.50;;;;;;5100832;28;20461;-75
2022/10/27 10:36:35;;;;;;;3.43;3.23;;;24.70;69.40;;;;;;5099032;28;20952;-76
2022/10/27 10:39:21;;;;;;;3.07;2.77;;;24.80;69.20;;;;;;5100614;28;20463;-75
2022/10/27 10:42:14;;;;;;;3.60;2.87;;;24.90;68.70;;;;;;5099703;28;20460;-75
2022/10/27 10:44:42;;;;;;;3.27;3.07;;;25.00;68.00;;;;;;5095685;28;20480;-74
2022/10/27 10:47:25;;;;;;;7.27;4.70;;;25.20;67.50;;;;;;5097916;28;20509;-74
2022/10/27 10:49:58;;;;;;;3.40;3.20;;;25.30;67.30;;;;;;5103493;28;20467;-75
2022/10/27 10:52:33;;;;;;;3.07;2.87;;;25.30;67.00;;;;;;5094204;28;20474;-75
2022/10/27 10:55:06;;;;;;;2.90;2.70;;;25.50;66.70;;;;;;5096106;28;20466;-75
2022/10/27 10:57:37;;;;;;;4.00;2.63;;;25.50;66.50;;;;;;5096299;28;20460;-75
2022/10/27 11:00:14;;;;;;;3.40;3.20;;;25.60;66.30;;;;;;5105469;28;20468;-75
2022/10/27 11:02:50;;;;;;;3.83;3.40;;;25.60;66.20;;;;;;5097473;28;20562;-75
2022/10/27 11:05:30;;;;;;;3.23;2.90;;;25.70;66.00;;;;;;5100988;28;20548;-75
2022/10/27 11:07:59;;;;;;;2.90;2.60;;;25.80;65.90;;;;;;5100084;28;20532;-75
2022/10/27 11:10:31;;;;;;;2.80;2.60;;;25.80;65.80;;;;;;5103184;28;20977;-75
2022/10/27 11:13:03;;;;;;;2.87;2.67;;;25.80;65.80;;;;;;5101134;28;20489;-75
2022/10/27 11:15:35;;;;;;;2.70;2.27;;;25.90;65.80;;;;;;5104073;28;20479;-75
2022/10/27 11:18:12;;;;;;;3.07;2.87;;;25.90;65.70;;;;;;5091693;28;20495;-75
2022/10/27 11:20:44;;;;;;;2.97;2.77;;;25.90;65.70;;;;;;5095933;28;20467;-81
2022/10/27 11:23:17;;;;;;;3.23;2.90;;;25.90;65.70;;;;;;5099436;27;20493;-81
2022/10/27 11:25:47;;;;;;;2.73;2.60;;;25.90;65.70;;;;;;5100372;28;20545;-81
2022/10/27 11:28:22;;;;;;;2.90;2.70;;;25.90;65.70;;;;;;5106105;28;20449;-80
2022/10/27 11:30:56;;;;;;;3.83;3.20;;;25.90;65.70;;;;;;5096352;28;20473;-75
2022/10/27 11:33:36;;;;;;;2.97;2.77;;;25.90;65.70;;;;;;5093884;28;20511;-76
2022/10/27 11:36:16;;;;;;;3.23;3.00;;;25.90;65.60;;;;;;5103097;28;20492;-76
2022/10/27 11:38:56;;;;;;;3.40;3.10;;;26.00;65.70;;;;;;5100332;28;20455;-75
2022/10/27 11:41:31;;;;;;;3.00;2.80;;;26.00;65.70;;;;;;5098112;28;21345;-75
2022/10/27 11:44:06;;;;;;;5.20;3.20;;;26.00;65.70;;;;;;5094509;28;20461;-74
2022/10/27 11:46:43;;;;;;;3.20;2.90;;;26.00;65.70;;;;;;5100832;28;20502;-75
2022/10/27 11:49:20;;;;;;;4.83;2.90;;;26.10;65.70;;;;;;5098614;28;20992;-75
2022/10/27 11:51:55;;;;;;;3.67;3.37;;;26.10;65.90;;;;;;5100952;28;20454;-75
2022/10/27 11:54:24;;;;;;;4.03;3.30;;;26.10;65.90;;;;;;5099353;28;20473;-75
2022/10/27 11:57:03;;;;;;;3.70;3.40;;;26.10;66.10;;;;;;5100937;28;20822;-76
2022/10/27 11:59:53;;;;;;;4.87;3.37;;;26.10;66.20;;;;;;5095384;28;20471;-76
2022/10/27 12:02:52;;;;;;;5.33;3.17;;;26.10;65.90;;;;;;5100188;28;20477;-75
2022/10/27 12:05:26;;;;;;;5.07;3.00;;;26.20;65.80;;;;;;5096527;28;20456;-76
2022/10/27 12:08:07;;;;;;;5.40;3.50;;;26.20;65.70;;;;;;5093583;28;20442;-75
2022/10/27 12:10:46;;;;;;;3.53;3.23;;;26.30;65.60;;;;;;5103165;28;20512;-74
2022/10/27 12:13:24;;;;;;;3.40;3.17;;;26.30;65.50;;;;;;5098109;28;20496;-74
2022/10/27 12:15:58;;;;;;;4.23;3.40;;;26.30;65.40;;;;;;5093926;28;20460;-72
2022/10/27 12:18:34;;;;;;;3.63;3.37;;;26.30;65.50;;;;;;5104495;28;20460;-74
2022/10/27 12:21:10;;;;;;;3.90;3.30;;;26.40;65.40;;;;;;5097161;28;20456;-75
2022/10/27 12:23:45;;;;;;;6.80;3.03;;;26.40;65.40;;;;;;5097268;28;20882;-73
2022/10/27 12:26:20;;;;;;;3.83;3.13;;;26.40;65.50;;;;;;5104210;28;20454;-76
2022/10/27 12:28:50;;;;;;;3.07;2.77;;;26.40;65.60;;;;;;5099341;28;21093;-75
2022/10/27 12:31:23;;;;;;;3.40;2.90;;;26.50;65.60;;;;;;5100517;28;20484;-75
2022/10/27 12:33:55;;;;;;;7.13;3.13;;;26.60;65.60;;;;;;5099162;28;20548;-74
2022/10/27 12:36:30;;;;;;;6.10;3.73;;;26.60;65.50;;;;;;5100986;28;20450;-73
2022/10/27 12:39:12;;;;;;;7.23;3.03;;;26.70;65.40;;;;;;5095102;28;21017;-75
2022/10/27 12:41:47;;;;;;;4.50;3.03;;;26.70;65.40;;;;;;5097207;28;20442;-75
2022/10/27 12:44:25;;;;;;;3.90;3.53;;;26.80;65.30;;;;;;5095876;28;20503;-76
2022/10/27 12:47:09;;;;;;;2.90;2.70;;;26.90;65.10;;;;;;5104627;28;20443;-74
2022/10/27 12:49:45;;;;;;;4.70;3.30;;;27.00;64.90;;;;;;5098289;28;20968;-77
2022/10/27 12:52:17;;;;;;;6.03;3.00;;;27.10;64.80;;;;;;5101393;28;20448;-75
2022/10/27 12:55:06;;;;;;;3.97;3.10;;;27.10;64.60;;;;;;5096190;28;21011;-84
2022/10/27 12:57:46;;;;;;;4.30;3.53;;;27.20;64.70;;;;;;5099129;28;20455;-76
2022/10/27 13:00:18;;;;;;;5.40;3.13;;;27.30;64.70;;;;;;5095811;28;21090;-80
2022/10/27 13:03:10;;;;;;;5.40;3.53;;;27.30;64.60;;;;;;5094659;28;20454;-80
2022/10/27 13:05:59;;;;;;;5.07;3.50;;;27.30;64.60;;;;;;5101661;28;20612;-81
2022/10/27 13:09:19;;;;;;;3.57;3.20;;;27.30;64.70;;;;;;5096260;28;20546;-78
2022/10/27 13:12:14;;;;;;;3.63;2.63;;;27.30;64.70;;;;;;5099280;28;20484;-81
2022/10/27 13:15:22;;;;;;;4.83;3.53;;;27.20;64.90;;;;;;5104332;28;20798;-80